Time;durP1;ratioP1;P1;durP2;ratioP2;P2;SDS_P1;SDS_P2;PMS_P1;PMS_P2;Temp;Humidity;BMP_temperature;BMP_pressure;BME280_temperature;BME280_humidity;BME280_pressure;Samples;Min_cycle;Max_cycle;Signal;HPM_P1;HPM_P2
2022/12/24 00:02:24;;;;;;;8.87;6.73;;;;;;;6.66;94.65;100404.84;6119682;28;20229;-67
2022/12/24 00:05:45;;;;;;;10.20;5.80;;;;;;;6.67;94.90;100410.09;6124845;28;20227;-67
2022/12/24 00:09:06;;;;;;;9.00;7.03;;;;;;;6.67;94.85;100406.56;6110688;28;20605;-66
2022/12/24 00:12:26;;;;;;;7.87;6.37;;;;;;;6.71;94.75;100408.88;6118977;28;20860;-67
2022/12/24 00:15:48;;;;;;;12.30;6.83;;;;;;;6.63;95.09;100411.34;6105639;28;20228;-67
2022/12/24 00:19:10;;;;;;;11.33;6.90;;;;;;;6.59;94.59;100406.34;6118575;28;20254;-67
2022/12/24 00:22:31;;;;;;;9.30;6.13;;;;;;;6.56;95.57;100415.47;6122831;28;20322;-67
2022/12/24 00:25:52;;;;;;;7.47;5.27;;;;;;;6.73;94.85;100414.97;6123562;28;20232;-67
2022/12/24 00:29:12;;;;;;;9.13;5.57;;;;;;;6.83;94.07;100425.78;6114830;28;20244;-66
2022/12/24 00:32:33;;;;;;;11.27;5.97;;;;;;;6.83;94.03;100420.44;6123171;28;20236;-67
2022/12/24 00:35:55;;;;;;;11.57;5.93;;;;;;;6.79;94.11;100424.31;6111189;28;20236;-66
2022/12/24 00:39:16;;;;;;;9.53;7.10;;;;;;;6.69;94.68;100426.91;6114289;28;20228;-68
2022/12/24 00:42:37;;;;;;;4.87;4.47;;;;;;;6.64;94.45;100428.22;6117694;28;20243;-67
2022/12/24 00:46:00;;;;;;;12.53;5.90;;;;;;;6.56;95.02;100441.38;6115316;28;20243;-67
2022/12/24 00:49:20;;;;;;;9.23;6.83;;;;;;;6.55;94.63;100432.47;6115001;28;20244;-66
2022/12/24 00:52:43;;;;;;;11.13;7.97;;;;;;;6.56;94.37;100439.56;6117293;28;20244;-67
2022/12/24 00:56:04;;;;;;;12.80;6.80;;;;;;;6.40;95.51;100431.88;6116410;28;20228;-66
2022/12/24 00:59:24;;;;;;;7.70;4.80;;;;;;;6.22;95.77;100432.47;6109583;28;20289;-66
2022/12/24 01:02:45;;;;;;;5.47;5.03;;;;;;;6.22;96.08;100453.88;6116858;28;20240;-67
2022/12/24 01:06:09;;;;;;;6.87;5.47;;;;;;;6.31;96.43;100445.13;6109563;28;20739;-66
2022/12/24 01:09:31;;;;;;;12.33;6.57;;;;;;;6.38;96.20;100447.19;6106029;28;20231;-65
2022/12/24 01:12:52;;;;;;;9.47;6.60;;;;;;;6.39;95.68;100454.28;6117246;28;20315;-67
2022/12/24 01:16:15;;;;;;;7.77;6.30;;;;;;;6.33;95.74;100453.91;6116932;28;20231;-66
2022/12/24 01:19:36;;;;;;;12.17;6.07;;;;;;;6.19;95.81;100465.69;6114346;28;20232;-66
2022/12/24 01:22:57;;;;;;;9.30;6.37;;;;;;;6.25;95.79;100461.69;6115783;28;20629;-67
2022/12/24 01:26:19;;;;;;;10.33;6.10;;;;;;;6.16;96.16;100462.38;6115682;28;20243;-66
2022/12/24 01:29:40;;;;;;;8.87;6.77;;;;;;;6.09;96.51;100462.00;6122102;28;20251;-67
2022/12/24 01:33:00;;;;;;;9.73;5.90;;;;;;;6.16;96.83;100470.41;6103141;28;20268;-67
2022/12/24 01:36:21;;;;;;;11.23;7.80;;;;;;;6.25;96.46;100462.53;6129207;28;20391;-67
2022/12/24 01:39:42;;;;;;;7.07;6.03;;;;;;;6.16;96.37;100465.91;6118335;28;20219;-66
2022/12/24 01:43:26;;;;;;;9.43;6.03;;;;;;;6.18;96.46;100463.97;6104206;28;20240;-66
2022/12/24 01:46:49;;;;;;;6.10;5.00;;;;;;;6.27;96.83;100470.44;6124527;28;20732;-67
2022/12/24 01:50:16;;;;;;;11.27;6.13;;;;;;;6.23;96.35;100464.47;6106122;28;20685;-66
2022/12/24 01:53:39;;;;;;;6.57;4.93;;;;;;;6.25;96.31;100465.22;6112031;28;20238;-67
2022/12/24 01:57:04;;;;;;;11.87;5.57;;;;;;;6.27;96.27;100468.63;6113887;28;20247;-66
2022/12/24 02:00:26;;;;;;;7.03;5.47;;;;;;;6.24;96.04;100474.19;6118133;28;20460;-65
2022/12/24 02:03:47;;;;;;;8.97;5.87;;;;;;;6.15;96.36;100477.56;6109014;28;20526;-67
2022/12/24 02:07:08;;;;;;;8.40;4.83;;;;;;;6.20;96.25;100479.91;6121040;28;20356;-66
2022/12/24 02:10:29;;;;;;;7.27;5.50;;;;;;;6.22;96.35;100476.13;6110573;28;20229;-66
2022/12/24 02:13:55;;;;;;;8.80;6.93;;;;;;;6.25;95.86;100489.31;6110583;28;20246;-66
2022/12/24 02:17:24;;;;;;;10.40;5.40;;;;;;;6.28;95.71;100485.50;6110235;28;20251;-67
2022/12/24 02:21:21;;;;;;;5.90;4.90;;;;;;;6.32;95.59;100492.38;6102750;28;20228;-66
2022/12/24 02:25:07;;;;;;;6.93;5.90;;;;;;;6.41;95.22;100499.66;6110732;28;20235;-66
2022/12/24 02:28:41;;;;;;;12.30;4.80;;;;;;;6.42;95.08;100502.22;6108214;28;20235;-66
2022/12/24 02:32:09;;;;;;;10.17;5.17;;;;;;;6.35;95.13;100506.34;6121476;28;20256;-66
2022/12/24 02:35:37;;;;;;;6.97;6.37;;;;;;;6.14;95.43;100508.00;6114561;28;20319;-66
2022/12/24 02:39:02;;;;;;;6.27;4.83;;;;;;;6.19;96.01;100503.16;6113931;28;20322;-66
2022/12/24 02:42:31;;;;;;;7.10;4.57;;;;;;;6.13;95.92;100508.13;6120946;28;20240;-66
2022/12/24 02:45:57;;;;;;;12.63;5.87;;;;;;;6.24;96.01;100511.66;6123303;28;22460;-66
2022/12/24 02:49:19;;;;;;;9.93;6.50;;;;;;;6.16;95.90;100511.41;6115524;28;20224;-66
2022/12/24 02:52:42;;;;;;;6.83;5.40;;;;;;;6.12;96.01;100517.97;6119312;28;20827;-65
2022/12/24 02:56:23;;;;;;;10.00;5.73;;;;;;;6.18;96.05;100528.19;6107475;28;20504;-66
2022/12/24 02:59:58;;;;;;;9.57;5.30;;;;;;;6.23;95.84;100523.38;6112911;28;21004;-67
2022/12/24 03:03:33;;;;;;;6.47;5.20;;;;;;;6.21;96.05;100530.66;6105823;28;20239;-67
2022/12/24 03:07:00;;;;;;;9.63;5.27;;;;;;;6.25;96.15;100520.56;6117082;28;20492;-67
2022/12/24 03:10:27;;;;;;;7.43;4.43;;;;;;;6.34;95.98;100528.72;6116574;28;20231;-66
2022/12/24 03:13:49;;;;;;;7.43;5.00;;;;;;;6.29;95.75;100525.56;6113838;28;20240;-66
2022/12/24 03:17:10;;;;;;;5.93;4.50;;;;;;;6.34;95.57;100527.91;6124522;28;20243;-66
2022/12/24 03:20:35;;;;;;;5.97;4.17;;;;;;;6.35;95.51;100529.59;6118710;28;20327;-67
2022/12/24 03:23:58;;;;;;;9.00;6.87;;;;;;;6.34;95.76;100535.94;6123591;28;20535;-66
2022/12/24 03:27:19;;;;;;;8.10;4.80;;;;;;;6.38;95.75;100534.72;6117979;28;20233;-67
2022/12/24 03:30:41;;;;;;;8.00;5.07;;;;;;;6.38;95.54;100538.22;6113016;28;20735;-65
2022/12/24 03:34:02;;;;;;;5.50;3.50;;;;;;;6.37;95.37;100543.69;6119352;28;20311;-67
2022/12/24 03:37:24;;;;;;;9.80;5.33;;;;;;;6.43;95.16;100551.25;6122856;28;20247;-66
2022/12/24 03:40:46;;;;;;;8.30;6.23;;;;;;;6.39;95.09;100555.16;6117306;28;20323;-66
2022/12/24 03:44:06;;;;;;;8.07;4.93;;;;;;;6.35;95.30;100554.53;6118257;28;20641;-66
2022/12/24 03:47:27;;;;;;;6.07;5.50;;;;;;;6.33;95.66;100553.81;6121975;28;20232;-66
2022/12/24 03:50:48;;;;;;;7.23;4.87;;;;;;;6.31;95.67;100561.09;6113647;28;20224;-65
2022/12/24 03:54:08;;;;;;;5.93;4.80;;;;;;;6.36;95.70;100556.22;6114486;28;20236;-66
2022/12/24 03:57:30;;;;;;;8.67;5.20;;;;;;;6.34;95.47;100562.69;6117154;28;20586;-67
2022/12/24 04:00:52;;;;;;;12.53;5.03;;;;;;;6.37;95.61;100565.97;6116397;28;20228;-66
2022/12/24 04:04:13;;;;;;;6.67;3.80;;;;;;;6.38;95.62;100582.91;6117899;28;20258;-66
2022/12/24 04:07:34;;;;;;;6.50;3.80;;;;;;;6.42;95.47;100584.38;6120416;28;20315;-66
2022/12/24 04:10:55;;;;;;;9.23;4.87;;;;;;;6.43;95.30;100586.06;6116536;28;20273;-66
2022/12/24 04:14:17;;;;;;;7.27;4.60;;;;;;;6.37;95.29;100597.25;6121952;28;20248;-67
2022/12/24 04:17:38;;;;;;;6.63;5.10;;;;;;;6.25;95.52;100596.34;6119576;28;20558;-66
2022/12/24 04:20:59;;;;;;;7.13;4.63;;;;;;;6.28;95.71;100598.78;6118740;28;20239;-67
2022/12/24 04:24:20;;;;;;;7.17;4.60;;;;;;;6.23;95.59;100597.44;6124208;28;20235;-67
2022/12/24 04:27:41;;;;;;;9.53;4.13;;;;;;;6.23;96.10;100592.09;6117455;28;20236;-66
2022/12/24 04:31:05;;;;;;;4.97;3.40;;;;;;;6.29;95.91;100603.19;6120811;28;20330;-65
2022/12/24 04:34:27;;;;;;;5.50;3.53;;;;;;;6.37;95.84;100602.59;6115818;28;20235;-66
2022/12/24 04:37:48;;;;;;;5.87;3.83;;;;;;;6.48;95.60;100608.00;6119464;28;20228;-67
2022/12/24 04:41:12;;;;;;;8.73;4.77;;;;;;;6.58;95.20;100613.50;6117963;28;20235;-66
2022/12/24 04:44:33;;;;;;;4.83;3.03;;;;;;;6.51;94.82;100620.31;6115067;28;20320;-67
2022/12/24 04:47:56;;;;;;;3.30;3.07;;;;;;;6.47;95.05;100615.16;6102951;28;20244;-67
2022/12/24 04:51:18;;;;;;;7.33;4.83;;;;;;;6.39;95.10;100616.72;6109905;28;20228;-66
2022/12/24 04:54:39;;;;;;;4.03;3.63;;;;;;;6.41;95.15;100615.63;6112456;28;20285;-66
2022/12/24 04:57:59;;;;;;;7.10;3.43;;;;;;;6.30;95.53;100610.22;6118665;28;20240;-66
2022/12/24 05:01:22;;;;;;;4.37;3.07;;;;;;;6.24;95.76;100610.69;6111577;28;20231;-66
2022/12/24 05:04:44;;;;;;;4.00;3.13;;;;;;;6.21;95.91;100613.63;6110097;28;20580;-67
2022/12/24 05:08:05;;;;;;;3.27;2.67;;;;;;;6.35;95.79;100607.22;6109540;28;20505;-66
2022/12/24 05:11:26;;;;;;;5.87;2.97;;;;;;;6.37;95.34;100607.94;6104501;28;20264;-67
2022/12/24 05:14:47;;;;;;;5.93;3.97;;;;;;;6.34;95.58;100603.66;6114691;28;20499;-65
2022/12/24 05:18:07;;;;;;;5.87;3.63;;;;;;;6.32;95.48;100608.28;6113010;28;20227;-67
2022/12/24 05:21:29;;;;;;;5.10;3.57;;;;;;;6.27;95.51;100614.97;6119865;28;20316;-66
2022/12/24 05:28:28;;;;;;;5.97;3.23;;;;;;;6.36;95.40;100607.09;6116879;28;20625;-67
2022/12/24 05:31:49;;;;;;;7.70;3.97;;;;;;;6.42;95.60;100628.03;6106819;28;20232;-67
2022/12/24 05:35:10;;;;;;;4.30;3.53;;;;;;;6.50;95.39;100627.47;6111668;28;20805;-66
2022/12/24 05:38:33;;;;;;;4.17;3.40;;;;;;;6.45;94.90;100629.63;6108639;28;20241;-66
2022/12/24 05:41:54;;;;;;;5.10;3.43;;;;;;;6.35;95.42;100632.16;6108282;28;20248;-66
2022/12/24 05:45:15;;;;;;;3.83;3.37;;;;;;;6.32;95.22;100635.06;6107083;28;20239;-66
2022/12/24 05:48:36;;;;;;;4.73;3.10;;;;;;;6.34;95.27;100643.00;6109931;28;20244;-67
2022/12/24 05:51:57;;;;;;;3.20;2.30;;;;;;;6.32;95.21;100640.41;6106600;28;20271;-66
2022/12/24 05:55:19;;;;;;;3.53;2.60;;;;;;;6.30;95.46;100647.69;6113467;28;20227;-67
2022/12/24 05:58:40;;;;;;;3.90;3.20;;;;;;;6.34;95.35;100645.69;6111020;28;20236;-66
2022/12/24 06:02:01;;;;;;;5.47;3.27;;;;;;;6.29;95.23;100645.16;6109501;28;20239;-66
2022/12/24 06:05:22;;;;;;;3.90;2.93;;;;;;;6.40;95.46;100646.03;6110814;28;20236;-66
2022/12/24 06:08:43;;;;;;;3.53;2.90;;;;;;;6.31;94.89;100652.09;6113041;28;20587;-66
2022/12/24 06:12:06;;;;;;;4.90;3.37;;;;;;;6.27;95.27;100655.97;6113881;28;20248;-67
2022/12/24 06:15:27;;;;;;;5.00;3.73;;;;;;;6.20;95.32;100654.72;6117010;28;20326;-66
2022/12/24 06:18:48;;;;;;;3.90;3.43;;;;;;;6.26;95.38;100656.94;6116366;28;20236;-67
2022/12/24 06:22:09;;;;;;;3.73;2.87;;;;;;;6.22;95.29;100658.13;6124132;28;20259;-66
2022/12/24 06:25:29;;;;;;;4.63;3.20;;;;;;;6.22;95.01;100652.78;6118090;28;20319;-65
2022/12/24 06:28:52;;;;;;;4.07;3.33;;;;;;;6.25;95.07;100655.25;6118736;28;20228;-66
2022/12/24 06:32:12;;;;;;;3.20;2.90;;;;;;;6.22;94.99;100657.28;6119328;28;20232;-64
2022/12/24 06:35:34;;;;;;;3.50;2.53;;;;;;;6.22;94.95;100657.28;6111629;28;20240;-66
2022/12/24 06:38:54;;;;;;;4.03;3.47;;;;;;;6.18;95.32;100651.31;6111997;28;20232;-66
2022/12/24 06:42:15;;;;;;;7.40;3.00;;;;;;;6.07;95.25;100664.63;6109536;28;20683;-65
2022/12/24 06:45:38;;;;;;;4.80;3.63;;;;;;;6.16;95.40;100668.44;6107357;28;20244;-66
2022/12/24 06:48:58;;;;;;;3.07;2.77;;;;;;;6.15;95.37;100664.91;6117248;28;20238;-66
2022/12/24 06:52:19;;;;;;;3.97;2.90;;;;;;;6.18;95.33;100677.19;6117278;28;20232;-66
2022/12/24 06:55:40;;;;;;;4.30;2.87;;;;;;;6.08;95.34;100678.84;6116256;28;20785;-66
2022/12/24 06:59:01;;;;;;;3.93;2.90;;;;;;;6.17;96.16;100679.03;6115530;28;20231;-65
2022/12/24 07:02:23;;;;;;;2.87;2.63;;;;;;;6.29;95.00;100675.47;6114964;28;20240;-66
2022/12/24 07:05:44;;;;;;;3.40;3.20;;;;;;;6.24;95.14;100680.28;6110419;28;20235;-66
2022/12/24 07:09:05;;;;;;;5.87;2.67;;;;;;;6.20;94.82;100694.00;6104627;28;20228;-65
2022/12/24 07:12:26;;;;;;;3.20;1.93;;;;;;;6.32;94.36;100701.16;6116777;28;20708;-66
2022/12/24 07:15:48;;;;;;;3.17;2.73;;;;;;;6.22;95.10;100705.44;6108035;28;20323;-66
2022/12/24 07:19:10;;;;;;;3.17;2.90;;;;;;;6.32;95.33;100711.84;6116122;28;20330;-65
2022/12/24 07:22:31;;;;;;;4.20;1.90;;;;;;;6.32;95.57;100711.84;6119789;28;20240;-65
2022/12/24 07:25:51;;;;;;;2.77;2.57;;;;;;;6.36;94.65;100718.69;6119670;28;20243;-66
2022/12/24 07:29:12;;;;;;;2.07;1.87;;;;;;;6.39;94.33;100732.69;6109708;28;20248;-66
2022/12/24 07:32:33;;;;;;;2.83;2.53;;;;;;;6.32;94.31;100726.06;6121503;28;20259;-67
2022/12/24 07:36:00;;;;;;;2.93;2.53;;;;;;;6.16;94.42;100733.53;6122062;28;20229;-66
2022/12/24 07:39:21;;;;;;;2.80;1.70;;;;;;;6.26;94.53;100739.03;6105964;28;20284;-67
2022/12/24 07:42:42;;;;;;;2.23;1.83;;;;;;;6.25;94.47;100745.38;6115865;28;20237;-66
2022/12/24 07:46:03;;;;;;;2.87;2.53;;;;;;;6.02;94.92;100744.38;6120001;28;20240;-66
2022/12/24 07:49:23;;;;;;;2.53;1.50;;;;;;;6.03;95.47;100748.75;6119419;28;20369;-66
2022/12/24 07:52:46;;;;;;;3.43;2.17;;;;;;;6.13;96.03;100752.47;6118563;28;20606;-66
2022/12/24 07:56:07;;;;;;;2.43;2.20;;;;;;;6.19;95.38;100754.72;6110886;28;20649;-66
2022/12/24 07:59:28;;;;;;;2.37;2.17;;;;;;;6.20;95.41;100767.13;6101024;28;20620;-66
2022/12/24 08:02:48;;;;;;;2.00;1.90;;;;;;;6.22;95.36;100770.53;6111239;28;20259;-66
2022/12/24 08:06:09;;;;;;;1.70;1.60;;;;;;;6.26;94.99;100774.69;6104775;28;20890;-66
2022/12/24 08:09:33;;;;;;;3.87;2.47;;;;;;;6.26;95.50;100780.06;6109359;28;20239;-66
2022/12/24 08:12:54;;;;;;;12.77;11.23;;;;;;;6.30;95.19;100786.91;6114778;28;20239;-66
2022/12/24 08:16:15;;;;;;;8.30;7.00;;;;;;;6.29;94.85;100776.31;6107635;28;20603;-65
2022/12/24 08:19:36;;;;;;;3.73;2.57;;;;;;;6.24;94.66;100778.44;6109528;28;20514;-66
2022/12/24 08:22:56;;;;;;;2.37;2.07;;;;;;;6.35;94.54;100784.75;6110440;28;20263;-66
2022/12/24 08:26:18;;;;;;;2.13;1.83;;;;;;;6.35;94.20;100787.44;6103935;28;20236;-65
2022/12/24 08:29:39;;;;;;;3.93;2.43;;;;;;;6.23;94.58;100782.97;6113070;28;20238;-66
2022/12/24 08:33:00;;;;;;;1.60;1.40;;;;;;;6.26;94.88;100798.78;6112170;28;20232;-66
2022/12/24 08:36:21;;;;;;;2.93;1.50;;;;;;;6.23;95.03;100807.06;6113058;28;20236;-65
2022/12/24 08:39:42;;;;;;;1.50;1.40;;;;;;;6.28;94.92;100793.31;6110366;28;20572;-66
2022/12/24 08:43:04;;;;;;;3.20;2.33;;;;;;;6.33;94.47;100783.16;6113666;28;20228;-66
2022/12/24 08:46:25;;;;;;;1.63;1.30;;;;;;;6.20;94.60;100799.25;6114872;28;20223;-67
2022/12/24 08:49:46;;;;;;;2.57;1.83;;;;;;;6.28;94.75;100812.91;6110306;28;20228;-65
2022/12/24 08:53:07;;;;;;;1.90;1.80;;;;;;;6.22;94.85;100817.84;6095852;28;20232;-66
2022/12/24 08:56:28;;;;;;;3.93;3.37;;;;;;;6.07;95.56;100811.78;6119491;28;20228;-66
2022/12/24 08:59:50;;;;;;;4.40;3.83;;;;;;;6.14;95.83;100814.88;6113080;28;20282;-66
2022/12/24 09:03:14;;;;;;;2.47;2.13;;;;;;;6.14;95.64;100828.25;6102847;28;20594;-66
2022/12/24 09:06:36;;;;;;;1.87;1.77;;;;;;;5.93;96.09;100832.44;6113271;28;20244;-65
2022/12/24 09:09:57;;;;;;;2.43;1.73;;;;;;;5.92;96.08;100830.75;6105440;28;20236;-66
2022/12/24 09:13:18;;;;;;;1.70;1.60;;;;;;;6.15;96.13;100835.34;6107700;28;20235;-66
2022/12/24 09:16:41;;;;;;;3.57;2.43;;;;;;;6.29;95.05;100840.56;6117370;28;20405;-65
2022/12/24 09:20:02;;;;;;;2.83;2.50;;;;;;;6.50;94.55;100851.53;6111139;28;20235;-66
2022/12/24 09:23:22;;;;;;;2.47;2.27;;;;;;;6.63;94.03;100849.69;6114241;28;20235;-66
2022/12/24 09:26:44;;;;;;;2.23;2.03;;;;;;;6.64;93.51;100860.28;6117425;28;20241;-66
2022/12/24 09:30:07;;;;;;;2.40;2.20;;;;;;;6.36;93.56;100861.41;6113470;28;20231;-65
2022/12/24 09:33:31;;;;;;;2.00;1.80;;;;;;;6.42;94.38;100869.00;6104611;28;20239;-66
2022/12/24 09:36:53;;;;;;;2.40;2.20;;;;;;;6.52;95.14;100879.06;6121049;28;20803;-66
2022/12/24 09:40:24;;;;;;;2.20;1.77;;;;;;;6.22;94.71;100884.75;6120284;28;20268;-67
2022/12/24 09:43:47;;;;;;;4.53;2.80;;;;;;;5.91;95.83;100890.56;6102033;28;20243;-66
2022/12/24 09:47:18;;;;;;;2.27;2.07;;;;;;;5.94;96.55;100888.53;6105683;28;20311;-66
2022/12/24 09:50:45;;;;;;;2.00;1.73;;;;;;;5.91;96.82;100890.56;6104060;28;20665;-66
2022/12/24 09:54:15;;;;;;;1.83;1.73;;;;;;;6.12;96.42;100897.94;6108671;28;20241;-65
2022/12/24 09:57:40;;;;;;;3.80;3.00;;;;;;;6.35;96.93;100901.69;6114705;28;20259;-65
2022/12/24 10:01:01;;;;;;;7.67;4.63;;;;;;;6.15;96.16;100903.06;6107653;28;20232;-66
2022/12/24 10:04:27;;;;;;;3.43;3.13;;;;;;;6.12;95.84;100907.78;6112309;28;20232;-66
2022/12/24 10:07:59;;;;;;;2.00;1.80;;;;;;;6.11;96.27;100908.78;6121889;28;20228;-66
2022/12/24 10:11:26;;;;;;;2.87;1.93;;;;;;;6.14;95.83;100913.91;6105233;28;20235;-66
2022/12/24 10:14:58;;;;;;;2.33;1.67;;;;;;;6.07;96.19;100915.31;6105957;28;20614;-65
2022/12/24 10:18:33;;;;;;;2.87;2.27;;;;;;;6.08;96.13;100915.19;6111645;28;20294;-66
2022/12/24 10:22:05;;;;;;;2.07;1.90;;;;;;;6.04;96.73;100918.19;6114619;28;20243;-65
2022/12/24 10:25:33;;;;;;;2.37;2.17;;;;;;;6.35;96.03;100921.28;6110618;28;20329;-65
2022/12/24 10:28:58;;;;;;;2.43;1.67;;;;;;;6.50;94.80;100935.41;6107562;28;20262;-66
2022/12/24 10:32:22;;;;;;;2.13;1.80;;;;;;;6.68;94.21;100920.69;6112692;28;20236;-66
2022/12/24 10:35:47;;;;;;;1.60;1.50;;;;;;;6.52;94.67;100924.56;6102825;28;20237;-66
2022/12/24 10:39:16;;;;;;;2.23;2.00;;;;;;;6.53;95.07;100926.31;6115350;28;20227;-67
2022/12/24 10:42:41;;;;;;;2.60;2.40;;;;;;;6.47;94.58;100930.25;6119279;28;20323;-66
2022/12/24 10:46:06;;;;;;;2.93;2.50;;;;;;;6.57;94.96;100941.19;6112095;28;20326;-67
2022/12/24 10:49:34;;;;;;;2.10;1.90;;;;;;;6.63;94.90;100938.06;6104590;28;20239;-66
2022/12/24 10:53:04;;;;;;;5.63;2.30;;;;;;;6.71;94.05;100949.09;6116543;28;20227;-66
2022/12/24 10:56:25;;;;;;;4.27;3.27;;;;;;;6.83;93.81;100945.50;6109267;28;20235;-66
2022/12/24 10:59:53;;;;;;;3.57;1.97;;;;;;;6.70;94.19;100933.97;6106716;28;20262;-64
2022/12/24 11:03:23;;;;;;;2.67;2.27;;;;;;;6.86;94.18;100937.28;6110528;28;20668;-66
2022/12/24 11:06:53;;;;;;;2.27;2.07;;;;;;;6.65;94.53;100938.81;6120040;28;20267;-66
2022/12/24 11:10:23;;;;;;;3.67;3.37;;;;;;;6.71;94.82;100949.09;6099447;28;20232;-66
2022/12/24 11:13:46;;;;;;;2.80;2.30;;;;;;;6.87;94.62;100958.59;6105576;28;20232;-65
2022/12/24 11:17:18;;;;;;;4.43;2.80;;;;;;;7.07;93.45;100960.66;6113967;28;20811;-66
2022/12/24 11:20:40;;;;;;;3.00;2.07;;;;;;;7.03;93.79;100948.47;6106496;28;20233;-65
2022/12/24 11:24:08;;;;;;;5.43;1.80;;;;;;;6.93;94.07;100947.41;6110358;28;20601;-66
2022/12/24 11:27:39;;;;;;;4.60;3.93;;;;;;;6.67;94.80;100950.28;6119330;28;20231;-66
2022/12/24 11:31:03;;;;;;;3.90;3.07;;;;;;;6.59;95.69;100953.50;6116757;28;20235;-66
2022/12/24 11:34:28;;;;;;;3.73;2.73;;;;;;;6.72;95.98;100956.13;6113421;28;20232;-66
2022/12/24 11:38:08;;;;;;;2.40;2.20;;;;;;;6.47;96.45;100947.19;6116127;28;20231;-64
2022/12/24 11:41:36;;;;;;;3.20;2.33;;;;;;;6.49;97.16;100944.38;6119166;28;20232;-66
2022/12/24 11:44:59;;;;;;;4.77;2.47;;;;;;;6.62;96.90;100947.91;6112386;28;22486;-66
2022/12/24 11:48:26;;;;;;;3.63;2.50;;;;;;;6.77;96.75;100948.63;6108611;28;20561;-66
2022/12/24 11:52:10;;;;;;;4.37;3.57;;;;;;;6.84;95.90;100947.25;6113241;28;20258;-66
2022/12/24 11:55:44;;;;;;;4.90;4.40;;;;;;;6.94;95.97;100954.50;6116976;28;20259;-65
2022/12/24 11:59:19;;;;;;;2.60;2.33;;;;;;;7.08;95.09;100953.50;6113885;28;20560;-66
2022/12/24 12:02:42;;;;;;;6.70;4.00;;;;;;;7.14;95.64;100948.53;6115145;28;20551;-66
2022/12/24 12:06:16;;;;;;;6.73;4.23;;;;;;;7.16;94.76;100957.31;6122795;28;20252;-66
2022/12/24 12:09:42;;;;;;;5.13;4.07;;;;;;;7.08;95.38;100956.16;6102058;28;20239;-67
2022/12/24 12:13:06;;;;;;;4.73;4.33;;;;;;;7.15;95.33;100952.91;6112444;28;20236;-66
2022/12/24 12:16:59;;;;;;;4.17;3.43;;;;;;;7.20;95.36;100942.72;6115742;28;20224;-66
2022/12/24 12:20:18;;;;;;;4.97;2.90;;;;;;;7.20;94.95;100957.94;6110938;28;20227;-66
2022/12/24 12:23:45;;;;;;;8.57;4.47;;;;;;;7.21;95.36;100952.50;6115360;28;20234;-66
2022/12/24 12:27:19;;;;;;;4.43;3.53;;;;;;;7.97;93.98;100954.75;6115876;28;20633;-67
2022/12/24 12:30:43;;;;;;;5.10;3.70;;;;;;;8.17;91.73;100963.97;6115629;28;20792;-66
2022/12/24 12:34:10;;;;;;;5.80;4.33;;;;;;;7.82;92.68;100966.69;6110828;28;20320;-66
2022/12/24 12:37:36;;;;;;;5.07;4.33;;;;;;;8.22;91.71;100959.09;6113922;28;20231;-66
2022/12/24 12:41:10;;;;;;;4.50;4.07;;;;;;;9.00;89.62;100962.69;6110256;28;20252;-65
2022/12/24 12:44:47;;;;;;;4.03;3.50;;;;;;;9.90;85.58;100954.22;6106635;28;20259;-65
2022/12/24 12:48:29;;;;;;;5.00;4.50;;;;;;;10.06;84.22;100962.69;6105165;28;20255;-66
2022/12/24 12:52:00;;;;;;;7.03;4.83;;;;;;;9.47;84.91;100962.38;6115212;28;20228;-66
2022/12/24 12:55:32;;;;;;;4.67;3.37;;;;;;;8.89;87.94;100968.94;6106056;28;20230;-65
2022/12/24 12:58:59;;;;;;;5.40;4.90;;;;;;;8.46;90.31;100981.38;6107717;28;20223;-65
2022/12/24 13:02:53;;;;;;;6.67;5.40;;;;;;;7.86;93.89;100981.56;6121829;28;20519;-66
2022/12/24 13:06:32;;;;;;;8.30;4.50;;;;;;;7.69;96.46;100979.31;6115728;28;20239;-65
2022/12/24 13:10:08;;;;;;;6.97;4.87;;;;;;;8.01;95.66;100978.56;6117656;28;20247;-66
2022/12/24 13:13:55;;;;;;;10.47;5.40;;;;;;;8.22;94.37;100980.59;6103706;28;20330;-66
2022/12/24 13:17:58;;;;;;;6.77;4.40;;;;;;;8.64;93.62;100986.16;6117970;28;20236;-66
2022/12/24 13:21:23;;;;;;;5.53;4.50;;;;;;;8.40;93.42;101004.22;6094474;28;20223;-66
2022/12/24 13:24:49;;;;;;;5.73;4.83;;;;;;;8.15;94.36;101012.41;6113359;28;20256;-66
2022/12/24 13:28:35;;;;;;;8.20;5.77;;;;;;;8.10;94.87;101019.97;6105635;28;20235;-66
2022/12/24 13:32:37;;;;;;;7.60;5.93;;;;;;;7.88;96.06;101019.88;6118440;28;20738;-66
2022/12/24 13:35:59;;;;;;;5.27;4.50;;;;;;;7.66;97.20;101014.41;6113020;28;20259;-66
2022/12/24 13:39:21;;;;;;;7.40;5.13;;;;;;;7.50;98.34;101033.47;6112378;28;20238;-66
2022/12/24 13:43:06;;;;;;;17.93;6.27;;;;;;;7.46;99.55;101037.34;6113952;28;20358;-67
2022/12/24 13:46:50;;;;;;;9.40;6.17;;;;;;;7.44;100.00;101046.47;6117379;28;20267;-66
2022/12/24 13:50:22;;;;;;;8.30;7.10;;;;;;;7.47;99.90;101043.56;6120242;28;20235;-66
2022/12/24 13:53:45;;;;;;;24.70;6.57;;;;;;;7.53;100.00;101041.28;6106959;28;20231;-66
2022/12/24 13:57:26;;;;;;;9.23;5.93;;;;;;;7.66;99.96;101058.19;6122173;28;20271;-66
2022/12/24 14:00:55;;;;;;;7.47;5.77;;;;;;;7.80;99.78;101044.59;6103682;28;20328;-66
2022/12/24 14:04:24;;;;;;;7.90;5.93;;;;;;;8.01;98.65;101055.53;6114390;28;20235;-66
2022/12/24 14:07:49;;;;;;;8.97;6.33;;;;;;;7.99;97.47;101047.63;6118625;28;20259;-66
2022/12/24 14:11:13;;;;;;;4.93;4.40;;;;;;;8.04;97.45;101053.50;6108104;28;20232;-66
2022/12/24 14:14:37;;;;;;;8.73;7.57;;;;;;;7.85;98.49;101057.69;6113145;28;20908;-66
2022/12/24 14:17:58;;;;;;;11.63;8.63;;;;;;;7.77;98.06;101057.41;6118427;28;20259;-66
2022/12/24 14:21:23;;;;;;;6.77;5.97;;;;;;;7.85;99.26;101058.53;6114113;28;20231;-65
2022/12/24 14:24:51;;;;;;;6.93;5.60;;;;;;;7.90;98.30;101055.53;6118953;28;20246;-66
2022/12/24 14:28:17;;;;;;;8.27;5.40;;;;;;;7.90;98.92;101059.06;6107132;28;20571;-67
2022/12/24 14:31:51;;;;;;;8.00;5.20;;;;;;;7.91;99.06;101074.19;6122729;28;20513;-66
2022/12/24 14:35:17;;;;;;;9.60;5.30;;;;;;;7.91;98.64;101078.69;6115363;28;20231;-66
2022/12/24 14:38:41;;;;;;;6.50;5.53;;;;;;;7.77;98.94;101070.81;6106052;28;20239;-67
2022/12/24 14:42:16;;;;;;;11.33;5.43;;;;;;;7.73;100.00;101080.94;6127528;28;20232;-66
2022/12/24 14:45:44;;;;;;;8.37;5.90;;;;;;;7.78;100.00;101075.22;6111168;28;20244;-66
2022/12/24 14:49:15;;;;;;;6.00;4.43;;;;;;;7.76;99.86;101091.41;6113654;28;20231;-67
2022/12/24 14:52:45;;;;;;;7.23;4.33;;;;;;;7.80;100.00;101090.22;6117935;28;20236;-66
2022/12/24 14:56:13;;;;;;;6.23;4.90;;;;;;;7.78;100.00;101094.00;6111056;28;20736;-66
2022/12/24 14:59:41;;;;;;;6.50;5.37;;;;;;;7.82;100.00;101100.88;6108812;28;20274;-65
2022/12/24 15:03:02;;;;;;;15.80;5.43;;;;;;;7.84;100.00;101107.81;6116758;28;20232;-65
2022/12/24 15:06:24;;;;;;;8.20;5.40;;;;;;;7.73;100.00;101101.53;6110026;28;20232;-66
2022/12/24 15:09:45;;;;;;;6.53;5.47;;;;;;;7.71;100.00;101103.47;6123138;28;20242;-67
2022/12/24 15:13:15;;;;;;;6.93;4.83;;;;;;;7.69;100.00;101098.22;6112473;28;20605;-67
2022/12/24 15:16:36;;;;;;;7.97;5.03;;;;;;;7.70;100.00;101107.09;6123126;28;20676;-66
2022/12/24 15:19:58;;;;;;;14.03;5.13;;;;;;;7.82;100.00;101108.91;6112468;28;20227;-66
2022/12/24 15:23:22;;;;;;;8.57;5.50;;;;;;;7.84;100.00;101107.81;6116093;28;20248;-67
2022/12/24 15:26:44;;;;;;;12.23;4.57;;;;;;;7.95;100.00;101109.69;6118948;28;20239;-66
2022/12/24 15:30:15;;;;;;;6.80;5.57;;;;;;;7.92;100.00;101116.19;6121307;28;20259;-67
2022/12/24 15:33:36;;;;;;;11.50;6.67;;;;;;;8.00;100.00;101129.88;6112831;28;20226;-66
2022/12/24 15:37:03;;;;;;;5.73;5.00;;;;;;;8.00;100.00;101135.25;6122574;28;20228;-66
2022/12/24 15:40:25;;;;;;;5.90;5.03;;;;;;;8.00;100.00;101146.00;6104957;28;20670;-66
2022/12/24 15:43:48;;;;;;;8.20;4.77;;;;;;;7.81;100.00;101148.31;6120434;28;20846;-67
2022/12/24 15:47:16;;;;;;;15.13;6.57;;;;;;;7.79;100.00;101149.38;6118232;28;20248;-68
2022/12/24 15:50:43;;;;;;;5.87;5.27;;;;;;;7.80;100.00;101154.63;6116706;28;20236;-66
2022/12/24 15:54:06;;;;;;;5.53;4.83;;;;;;;7.77;100.00;101160.22;6108702;28;20236;-66
2022/12/24 15:57:32;;;;;;;8.60;5.57;;;;;;;7.80;100.00;101154.63;6126948;28;20239;-66
2022/12/24 16:01:03;;;;;;;6.57;4.47;;;;;;;7.89;100.00;101159.31;6111306;28;20231;-67
2022/12/24 16:04:26;;;;;;;6.23;4.87;;;;;;;7.97;100.00;101165.00;6119750;28;20234;-65
2022/12/24 16:08:09;;;;;;;10.23;4.73;;;;;;;7.94;100.00;101162.56;6119029;28;20619;-67